Oxberry, Mississippi
Current Conditions -  °F | °C
As of 11:55 AM on Monday 24 Nov 2014 (Local Time) from KGNF Reporting Station
Clear Clear  
Wind Chill: 55°   Ceiling: Unl
Heat Index: 55°   Visibility: 10mi
Dew Point: 37°   Wind: 0mph
Humidity: 51%   Direction: NA
Pressure: 29.93"   Gusts: NA
Location:  33.7549°N, 89.9608°W
Report Text: KGNF 241755Z AUTO 00000KT 10SM CLR 13/03 A2993 RMK AO2
Loading
Personal Weather Stations






























Interactive Weather Map New forecast layout! Learn more

10-Day Weather Forecast

Advertisements
Track Severe Weather on mobile